Time;durP1;ratioP1;P1;durP2;ratioP2;P2;SDS_P1;SDS_P2;PMS_P1;PMS_P2;Temp;Humidity;BMP_temperature;BMP_pressure;BME280_temperature;BME280_humidity;BME280_pressure;Samples;Min_cycle;Max_cycle;Signal;HPM_P1;HPM_P2
2023/05/17 00:00:18;;;;;;;17.03;12.33;;;;;;;16.25;100.00;100869.22;2065110;28;20185;-65
2023/05/17 00:01:19;;;;;;;14.67;13.07;;;;;;;16.26;100.00;100867.22;2073186;28;20205;-65
2023/05/17 00:02:19;;;;;;;14.60;12.73;;;;;;;16.24;100.00;100870.47;2065201;28;20197;-65
2023/05/17 00:03:20;;;;;;;14.23;12.77;;;;;;;16.19;100.00;100857.09;2070780;28;20201;-65
2023/05/17 00:04:20;;;;;;;15.83;12.67;;;;;;;16.26;100.00;100859.63;2071681;28;20181;-65
2023/05/17 00:05:20;;;;;;;16.93;13.10;;;;;;;16.26;100.00;100858.81;2075582;28;20201;-65
2023/05/17 00:06:21;;;;;;;15.03;13.47;;;;;;;15.51;100.00;100745.06;2072800;28;20272;-65
2023/05/17 00:07:21;;;;;;;14.40;12.90;;;;;;;16.26;100.00;100854.03;2071635;28;20181;-65
2023/05/17 00:08:22;;;;;;;16.10;13.80;;;;;;;16.20;100.00;100841.13;2072562;28;20268;-65
2023/05/17 00:09:22;;;;;;;15.90;13.27;;;;;;;16.20;100.00;100849.50;2072316;28;20188;-65
2023/05/17 00:10:23;;;;;;;17.43;13.70;;;;;;;16.23;100.00;100851.34;2072335;28;20623;-65
2023/05/17 00:11:23;;;;;;;15.23;13.73;;;;;;;16.26;100.00;100853.22;2065954;28;20676;-65
2023/05/17 00:12:23;;;;;;;14.73;13.10;;;;;;;16.27;100.00;100847.19;2070219;28;20205;-65
2023/05/17 00:13:24;;;;;;;15.47;13.50;;;;;;;16.27;100.00;100843.59;2072130;28;20201;-65
2023/05/17 00:14:24;;;;;;;18.80;13.43;;;;;;;16.07;100.00;100813.31;2072680;28;20231;-65
2023/05/17 00:15:24;;;;;;;16.33;12.37;;;;;;;16.19;100.00;100842.38;2071118;28;20196;-65
2023/05/17 00:16:25;;;;;;;20.00;13.33;;;;;;;16.09;100.00;100824.03;2072547;28;20268;-65
2023/05/17 00:17:25;;;;;;;16.80;14.17;;;;;;;16.14;100.00;100835.34;2079980;28;20193;-65
2023/05/17 00:18:26;;;;;;;14.67;12.80;;;;;;;16.08;100.00;100825.28;2079405;28;20201;-65
2023/05/17 00:19:26;;;;;;;18.30;14.00;;;;;;;15.85;100.00;100809.88;2071973;28;20571;-65
2023/05/17 00:20:27;;;;;;;16.90;13.77;;;;;;;15.86;100.00;100824.59;2071957;28;20205;-65
2023/05/17 00:21:27;;;;;;;17.13;14.57;;;;;;;15.75;100.00;100821.50;2072559;28;20478;-65
2023/05/17 00:22:27;;;;;;;18.20;15.43;;;;;;;15.74;100.00;100817.16;2068728;28;20571;-65
2023/05/17 00:23:28;;;;;;;17.20;15.57;;;;;;;15.76;100.00;100826.63;2066143;28;20190;-65
2023/05/17 00:24:28;;;;;;;17.33;15.53;;;;;;;15.84;100.00;100835.47;2072477;28;20191;-65
2023/05/17 00:25:29;;;;;;;16.27;14.53;;;;;;;15.81;100.00;100837.19;2065341;28;20245;-65
2023/05/17 00:26:29;;;;;;;17.73;14.13;;;;;;;15.96;100.00;100842.94;2072036;28;20197;-65
2023/05/17 00:27:29;;;;;;;15.87;13.73;;;;;;;15.98;100.00;100846.84;2072945;28;20189;-65
2023/05/17 00:28:30;;;;;;;18.13;13.53;;;;;;;16.02;100.00;100836.28;2070932;28;20221;-65
2023/05/17 00:29:30;;;;;;;22.70;13.20;;;;;;;16.01;100.00;100833.94;2069790;28;20208;-65
2023/05/17 00:30:31;;;;;;;17.23;13.67;;;;;;;15.98;100.00;100821.69;2071545;28;20212;-64
2023/05/17 00:31:31;;;;;;;15.03;13.43;;;;;;;15.93;100.00;100816.69;2072210;28;20560;-64
2023/05/17 00:32:31;;;;;;;15.73;14.07;;;;;;;15.85;100.00;100818.25;2071945;28;20265;-64
2023/05/17 00:33:32;;;;;;;16.87;14.93;;;;;;;15.76;100.00;100809.06;2072728;28;20186;-64
2023/05/17 00:34:32;;;;;;;16.50;14.90;;;;;;;15.81;100.00;100814.84;2072365;28;20613;-64
2023/05/17 00:35:33;;;;;;;25.13;14.77;;;;;;;15.82;100.00;100816.38;2072829;28;20187;-64
2023/05/17 00:36:33;;;;;;;16.87;14.77;;;;;;;15.87;100.00;100824.16;2068426;28;20267;-64
2023/05/17 00:37:33;;;;;;;16.90;13.97;;;;;;;15.90;100.00;100819.66;2068228;28;20193;-65
2023/05/17 00:38:34;;;;;;;19.13;14.47;;;;;;;15.91;100.00;100826.78;2071419;28;20693;-64
2023/05/17 00:39:34;;;;;;;17.47;14.33;;;;;;;15.90;100.00;100820.44;2071701;28;20197;-64
2023/05/17 00:40:35;;;;;;;16.70;15.03;;;;;;;15.92;100.00;100819.97;2071591;28;20234;-64
2023/05/17 00:41:35;;;;;;;15.50;13.60;;;;;;;15.90;100.00;100823.25;2080556;28;20227;-64
2023/05/17 00:42:36;;;;;;;15.80;14.20;;;;;;;15.88;100.00;100816.56;2072288;28;20200;-64
2023/05/17 00:43:36;;;;;;;17.07;15.30;;;;;;;15.83;100.00;100812.34;2070393;28;20272;-64
2023/05/17 00:44:36;;;;;;;18.30;14.80;;;;;;;15.77;100.00;100808.59;2070299;28;20206;-64
2023/05/17 00:45:37;;;;;;;17.10;15.40;;;;;;;15.74;100.00;100817.94;2072308;28;20248;-64
2023/05/17 00:46:37;;;;;;;17.20;15.00;;;;;;;15.74;100.00;100826.31;2069596;28;20264;-64
2023/05/17 00:47:38;;;;;;;16.87;15.23;;;;;;;15.37;100.00;100766.00;2065794;28;20174;-64
2023/05/17 00:48:38;;;;;;;15.77;14.23;;;;;;;15.71;100.00;100813.25;2064942;28;20412;-64
2023/05/17 00:49:39;;;;;;;17.27;15.47;;;;;;;15.80;100.00;100815.28;2076263;28;20192;-64
2023/05/17 00:50:40;;;;;;;20.40;15.13;;;;;;;15.90;100.00;100823.25;2072758;28;20193;-64
2023/05/17 00:51:41;;;;;;;17.20;14.67;;;;;;;15.94;100.00;100831.47;2072412;28;20205;-64
2023/05/17 00:52:41;;;;;;;16.83;14.27;;;;;;;15.99;100.00;100834.41;2072132;28;20457;-64
2023/05/17 00:53:42;;;;;;;18.93;14.47;;;;;;;16.01;100.00;100825.56;2072019;28;20198;-64
2023/05/17 00:54:42;;;;;;;16.37;14.63;;;;;;;16.04;100.00;100831.00;2071661;28;20300;-64
2023/05/17 00:55:44;;;;;;;15.40;13.57;;;;;;;16.04;100.00;100830.22;2072419;28;20180;-64
2023/05/17 00:56:44;;;;;;;15.67;14.07;;;;;;;16.05;100.00;100831.78;2072278;28;20667;-64
2023/05/17 00:57:45;;;;;;;16.90;15.30;;;;;;;16.02;100.00;100827.13;2072439;28;20623;-65
2023/05/17 00:58:46;;;;;;;17.50;15.70;;;;;;;15.93;100.00;100818.75;2071710;28;20208;-65
2023/05/17 00:59:46;;;;;;;23.37;16.40;;;;;;;15.73;100.00;100802.38;2071163;28;20609;-65
2023/05/17 01:00:47;;;;;;;17.67;15.83;;;;;;;15.91;100.00;100824.78;2072240;28;20826;-65
2023/05/17 01:01:47;;;;;;;17.50;15.30;;;;;;;15.97;100.00;100820.13;2068655;28;20663;-65
2023/05/17 01:02:48;;;;;;;19.97;16.63;;;;;;;16.00;100.00;100829.59;2067566;28;20204;-65
2023/05/17 01:03:49;;;;;;;17.60;15.90;;;;;;;16.02;100.00;100824.31;2071876;28;20187;-65
2023/05/17 01:04:49;;;;;;;17.63;15.73;;;;;;;16.07;100.00;100830.06;2073225;28;20187;-65
2023/05/17 01:05:50;;;;;;;17.37;15.67;;;;;;;15.78;100.00;100784.25;2077685;28;20217;-65
2023/05/17 01:06:50;;;;;;;17.30;15.60;;;;;;;16.12;100.00;100828.66;2064272;28;20217;-65
2023/05/17 01:07:51;;;;;;;18.77;16.70;;;;;;;15.89;100.00;100785.31;2064335;28;20655;-65
2023/05/17 01:08:51;;;;;;;19.33;15.77;;;;;;;16.19;100.00;100826.34;2068678;28;20196;-65
2023/05/17 01:09:52;;;;;;;17.60;15.83;;;;;;;16.20;100.00;100825.13;2070709;28;20197;-65
2023/05/17 01:11:04;;;;;;;16.47;14.87;;;;;;;16.21;100.00;100832.28;2072011;28;20686;-65
2023/05/17 01:12:46;;;;;;;18.60;15.27;;;;;;;16.25;100.00;100840.50;2072335;28;20219;-65
2023/05/17 01:14:08;;;;;;;17.20;15.33;;;;;;;16.26;100.00;100845.63;2063164;28;20508;-65
2023/05/17 01:15:15;;;;;;;16.73;15.00;;;;;;;16.27;100.00;100843.59;2064679;28;20509;-64
2023/05/17 01:16:24;;;;;;;17.83;14.83;;;;;;;16.26;100.00;100840.03;2071958;28;20625;-65
2023/05/17 01:17:47;;;;;;;19.73;15.63;;;;;;;16.21;100.00;100835.06;2063872;28;20554;-65
2023/05/17 01:18:57;;;;;;;20.03;16.67;;;;;;;15.67;100.00;100742.03;2071740;28;20911;-65
2023/05/17 01:20:17;;;;;;;19.43;17.37;;;;;;;16.12;100.00;100828.66;2070681;28;20444;-64
2023/05/17 01:21:55;;;;;;;18.43;16.43;;;;;;;16.14;100.00;100824.16;2068507;28;20449;-64
2023/05/17 01:23:34;;;;;;;19.00;17.20;;;;;;;16.19;100.00;100829.16;2071736;28;20451;-64
2023/05/17 01:25:17;;;;;;;16.67;14.93;;;;;;;16.22;100.00;100824.63;2064245;28;20436;-65
2023/05/17 01:26:23;;;;;;;17.70;15.90;;;;;;;16.15;100.00;100813.78;2057929;28;20492;-65
2023/05/17 01:27:25;;;;;;;17.73;15.83;;;;;;;15.66;100.00;100752.41;2069065;28;20476;-65
2023/05/17 01:28:28;;;;;;;19.47;16.27;;;;;;;16.13;100.00;100824.66;2065228;28;20457;-65
2023/05/17 01:29:28;;;;;;;17.87;16.07;;;;;;;15.91;100.00;100788.44;2068390;28;20531;-65
2023/05/17 01:30:31;;;;;;;18.93;16.77;;;;;;;16.28;100.00;100853.53;2068679;28;20461;-65
2023/05/17 01:31:32;;;;;;;18.50;16.60;;;;;;;16.29;100.00;100852.31;2066995;28;20206;-64
2023/05/17 01:32:32;;;;;;;21.27;16.97;;;;;;;16.30;100.00;100867.84;2071625;28;20420;-65
2023/05/17 01:33:33;;;;;;;19.87;16.33;;;;;;;16.34;100.00;100874.81;2071399;28;20181;-64
2023/05/17 01:34:34;;;;;;;18.30;16.50;;;;;;;16.36;100.00;100871.56;2066989;28;20648;-64
2023/05/17 01:35:34;;;;;;;18.40;16.67;;;;;;;16.37;100.00;100873.13;2072302;28;20774;-64
2023/05/17 01:36:36;;;;;;;18.77;16.77;;;;;;;16.29;100.00;100855.88;2065593;28;20195;-64
2023/05/17 01:37:37;;;;;;;19.33;17.10;;;;;;;16.35;100.00;100870.03;2069116;28;20260;-64
2023/05/17 01:38:38;;;;;;;19.87;16.90;;;;;;;15.72;100.00;100778.47;2067134;28;20473;-64
2023/05/17 01:39:40;;;;;;;19.70;17.67;;;;;;;16.26;100.00;100867.22;2066378;28;20440;-64
2023/05/17 01:41:14;;;;;;;19.87;17.57;;;;;;;16.23;100.00;100882.91;2069028;28;20252;-65
2023/05/17 01:42:28;;;;;;;19.37;17.30;;;;;;;15.74;100.00;100787.19;2070000;28;20539;-65
2023/05/17 01:43:43;;;;;;;18.37;16.50;;;;;;;16.27;100.00;100871.56;2065432;28;20449;-65
2023/05/17 01:44:58;;;;;;;19.73;16.93;;;;;;;16.18;100.00;100869.53;2071303;28;20953;-65
2023/05/17 01:46:08;;;;;;;22.87;18.30;;;;;;;16.17;100.00;100864.41;2070232;28;21129;-65
2023/05/17 01:47:15;;;;;;;18.83;16.87;;;;;;;16.22;100.00;100863.78;2063681;28;20441;-65
2023/05/17 01:48:34;;;;;;;18.40;16.60;;;;;;;15.55;100.00;100763.25;2071447;28;21025;-65
2023/05/17 01:49:39;;;;;;;17.83;16.13;;;;;;;16.20;100.00;100869.88;2069156;28;20440;-65
2023/05/17 01:50:41;;;;;;;18.63;16.83;;;;;;;16.22;100.00;100874.97;2063824;28;20588;-65
2023/05/17 01:52:26;;;;;;;20.83;18.40;;;;;;;16.30;100.00;100881.81;2071390;28;20613;-65
2023/05/17 01:53:31;;;;;;;21.57;16.40;;;;;;;16.31;100.00;100881.38;2060290;28;20589;-65
2023/05/17 01:54:42;;;;;;;18.60;16.83;;;;;;;16.34;100.00;100886.00;2069734;28;20432;-64
2023/05/17 01:56:03;;;;;;;20.80;16.87;;;;;;;16.36;100.00;100883.53;2074435;28;20499;-64
2023/05/17 01:57:06;;;;;;;21.13;17.40;;;;;;;16.35;100.00;100887.56;2075281;28;20448;-64
2023/05/17 01:58:09;;;;;;;19.17;16.73;;;;;;;16.36;100.00;100877.16;2069930;28;20546;-64
2023/05/17 01:59:14;;;;;;;18.47;16.60;;;;;;;16.37;100.00;100881.50;2065694;28;20486;-65
2023/05/17 02:00:16;;;;;;;19.10;17.17;;;;;;;16.00;100.00;100826.81;2069030;28;20501;-65
2023/05/17 02:01:18;;;;;;;19.57;16.70;;;;;;;16.02;100.00;100835.50;2064229;28;20507;-65
2023/05/17 02:02:21;;;;;;;20.43;16.03;;;;;;;16.28;100.00;100875.91;2063760;28;20564;-65
2023/05/17 02:03:21;;;;;;;22.33;17.07;;;;;;;16.23;100.00;100888.50;2079680;28;21075;-65
2023/05/17 02:04:22;;;;;;;19.43;17.40;;;;;;;16.22;100.00;100877.75;2071880;28;20837;-65
2023/05/17 02:05:22;;;;;;;19.53;17.23;;;;;;;16.06;100.00;100852.91;2071984;28;20208;-65
2023/05/17 02:06:23;;;;;;;19.13;17.10;;;;;;;16.27;100.00;100875.16;2066895;28;20312;-65
2023/05/17 02:07:23;;;;;;;20.93;17.00;;;;;;;16.28;100.00;100878.69;2067285;28;20224;-65
2023/05/17 02:08:23;;;;;;;18.90;16.63;;;;;;;16.26;100.00;100872.81;2071322;28;20207;-65
2023/05/17 02:09:24;;;;;;;20.30;17.37;;;;;;;16.18;100.00;100872.34;2069459;28;20193;-65
2023/05/17 02:10:24;;;;;;;21.13;17.63;;;;;;;16.22;100.00;100874.97;2070820;28;20188;-64
2023/05/17 02:11:25;;;;;;;19.00;16.73;;;;;;;16.25;100.00;100874.06;2071843;28;20206;-64
2023/05/17 02:12:25;;;;;;;21.23;16.73;;;;;;;16.26;100.00;100879.19;2071836;28;20236;-64
2023/05/17 02:13:26;;;;;;;18.30;16.50;;;;;;;16.30;100.00;100877.00;2065019;28;20194;-64
2023/05/17 02:14:26;;;;;;;19.23;16.83;;;;;;;16.35;100.00;100878.41;2068316;28;20264;-64
2023/05/17 02:15:26;;;;;;;19.57;15.90;;;;;;;16.36;100.00;100877.16;2072219;28;20201;-64
2023/05/17 02:16:27;;;;;;;19.90;16.33;;;;;;;16.34;100.00;100874.81;2071462;28;20294;-64
2023/05/17 02:17:27;;;;;;;17.57;15.67;;;;;;;16.35;100.00;100876.38;2071609;28;20562;-64
2023/05/17 02:18:28;;;;;;;18.17;16.30;;;;;;;16.33;100.00;100872.50;2071129;28;20523;-64
2023/05/17 02:19:29;;;;;;;18.67;15.93;;;;;;;16.15;100.00;100847.31;2071565;28;20185;-64
2023/05/17 02:20:29;;;;;;;18.30;16.33;;;;;;;16.16;100.00;100851.66;2077882;28;20436;-64
2023/05/17 02:21:30;;;;;;;21.27;16.70;;;;;;;16.33;100.00;100878.09;2073246;28;20201;-64
2023/05/17 02:22:30;;;;;;;20.33;15.77;;;;;;;16.34;100.00;100891.59;2071632;28;20192;-65
2023/05/17 02:23:49;;;;;;;20.00;15.90;;;;;;;16.35;100.00;100884.75;2071710;28;20267;-65
2023/05/17 02:24:50;;;;;;;17.53;15.80;;;;;;;16.39;100.00;100890.25;2073833;28;20245;-64
2023/05/17 02:25:50;;;;;;;19.73;15.90;;;;;;;15.68;100.00;100779.88;2075146;28;20538;-64
2023/05/17 02:26:51;;;;;;;19.13;15.63;;;;;;;16.42;100.00;100892.09;2071518;28;20205;-64
2023/05/17 02:27:51;;;;;;;17.27;15.47;;;;;;;16.39;100.00;100896.63;2071631;28;20182;-64
2023/05/17 02:28:52;;;;;;;17.13;15.20;;;;;;;16.43;100.00;100908.44;2071207;28;20173;-65
2023/05/17 02:29:52;;;;;;;18.90;15.47;;;;;;;16.37;100.00;100893.47;2071282;28;20184;-65
2023/05/17 02:30:53;;;;;;;19.23;15.80;;;;;;;16.44;100.00;100903.63;2071960;28;20215;-64
2023/05/17 02:31:53;;;;;;;16.83;15.23;;;;;;;16.43;100.00;100900.03;2070994;28;20632;-64
2023/05/17 02:32:55;;;;;;;17.83;15.57;;;;;;;16.44;100.00;100898.78;2067229;28;20203;-64
2023/05/17 02:33:55;;;;;;;17.37;15.37;;;;;;;16.44;100.00;100907.19;2068028;28;20201;-64
2023/05/17 02:34:56;;;;;;;17.13;14.90;;;;;;;16.32;100.00;100882.13;2071567;28;20451;-64
2023/05/17 02:35:56;;;;;;;17.67;15.70;;;;;;;16.47;100.00;100904.72;2071257;28;20267;-64
2023/05/17 02:36:57;;;;;;;17.83;15.93;;;;;;;16.47;100.00;100905.47;2071008;28;20259;-64
2023/05/17 02:37:57;;;;;;;16.40;14.77;;;;;;;16.49;100.00;100903.78;2072244;28;20190;-64
2023/05/17 02:38:58;;;;;;;18.90;16.00;;;;;;;16.48;100.00;100904.22;2071148;28;20199;-64
2023/05/17 02:39:58;;;;;;;17.03;15.33;;;;;;;16.50;100.00;100905.31;2070856;28;20264;-64
2023/05/17 02:40:59;;;;;;;16.17;14.47;;;;;;;16.49;100.00;100900.22;2071534;28;20209;-64
2023/05/17 02:41:59;;;;;;;19.30;15.30;;;;;;;16.49;100.00;100905.81;2071744;28;20181;-64
2023/05/17 02:43:00;;;;;;;17.73;13.93;;;;;;;16.37;100.00;100899.09;2071139;28;20287;-64
2023/05/17 02:44:00;;;;;;;18.63;14.23;;;;;;;16.44;100.00;100915.56;2071714;28;20236;-65
2023/05/17 02:45:01;;;;;;;16.47;13.97;;;;;;;16.36;100.00;100917.09;2071624;28;20196;-65
2023/05/17 02:46:01;;;;;;;17.57;14.93;;;;;;;16.26;100.00;100909.16;2072071;28;20271;-65
2023/05/17 02:47:02;;;;;;;17.50;13.70;;;;;;;16.28;100.00;100918.63;2071131;28;20209;-65
2023/05/17 02:48:02;;;;;;;14.90;13.10;;;;;;;16.27;100.00;100928.28;2065324;28;20291;-65
2023/05/17 02:49:03;;;;;;;16.43;13.50;;;;;;;16.28;100.00;100920.66;2067619;28;20190;-65
2023/05/17 02:50:04;;;;;;;19.00;14.17;;;;;;;16.14;100.00;100898.91;2070791;28;20195;-65
2023/05/17 02:51:04;;;;;;;21.70;13.67;;;;;;;16.24;100.00;100918.00;2071461;28;20192;-65
2023/05/17 02:52:05;;;;;;;19.20;12.80;;;;;;;16.24;100.00;100900.47;2069880;28;20197;-65
2023/05/17 02:53:06;;;;;;;17.63;11.67;;;;;;;16.30;100.00;100921.75;2062954;28;20179;-65
2023/05/17 02:54:06;;;;;;;15.80;12.07;;;;;;;16.26;100.00;100920.34;2072166;28;20186;-65
2023/05/17 02:55:07;;;;;;;18.23;11.87;;;;;;;16.25;100.00;100922.34;2068354;28;20190;-65
2023/05/17 02:56:07;;;;;;;15.97;11.07;;;;;;;16.26;100.00;100912.75;2071786;28;20253;-65
2023/05/17 02:57:09;;;;;;;14.60;11.40;;;;;;;16.27;100.00;100921.91;2065949;28;20265;-65
2023/05/17 02:58:10;;;;;;;14.20;11.37;;;;;;;16.22;100.00;100914.91;2065545;28;20223;-65
2023/05/17 02:59:10;;;;;;;14.27;11.43;;;;;;;16.25;100.00;100919.56;2062667;28;20926;-65
2023/05/17 03:00:11;;;;;;;16.97;11.33;;;;;;;16.34;100.00;100933.56;2066281;28;20182;-65
2023/05/17 03:01:11;;;;;;;13.57;10.90;;;;;;;16.36;100.00;100931.09;2078005;28;20193;-65
2023/05/17 03:02:12;;;;;;;14.10;10.67;;;;;;;16.33;100.00;100934.00;2071709;28;20556;-65
2023/05/17 03:03:12;;;;;;;15.60;11.03;;;;;;;16.32;100.00;100938.06;2070489;28;20739;-65
2023/05/17 03:04:12;;;;;;;14.40;10.13;;;;;;;16.29;100.00;100936.22;2071905;28;20197;-65
2023/05/17 03:05:13;;;;;;;14.93;10.80;;;;;;;16.31;100.00;100945.69;2071489;28;20228;-65
2023/05/17 03:06:13;;;;;;;16.10;10.30;;;;;;;16.34;100.00;100944.00;2067642;28;20213;-65
2023/05/17 03:07:14;;;;;;;12.27;10.63;;;;;;;15.95;100.00;100886.91;2066009;28;20201;-65
2023/05/17 03:08:14;;;;;;;14.97;10.37;;;;;;;16.31;100.00;100962.47;2071858;28;20192;-65
2023/05/17 03:09:14;;;;;;;15.00;11.57;;;;;;;16.34;100.00;100955.16;2070266;28;20194;-65
2023/05/17 03:10:15;;;;;;;17.80;11.00;;;;;;;16.20;100.00;100939.78;2071555;28;20209;-65
2023/05/17 03:11:16;;;;;;;14.93;11.07;;;;;;;16.33;100.00;100959.97;2071494;28;20204;-65
2023/05/17 03:12:16;;;;;;;16.73;11.43;;;;;;;16.28;100.00;100957.78;2064990;28;20190;-65
2023/05/17 03:13:17;;;;;;;13.83;10.93;;;;;;;16.31;100.00;100958.88;2068182;28;20208;-65
2023/05/17 03:14:17;;;;;;;14.43;10.97;;;;;;;16.32;100.00;100963.22;2067374;28;20222;-65
2023/05/17 03:15:18;;;;;;;15.93;10.43;;;;;;;16.26;100.00;100957.50;2069992;28;20225;-65
2023/05/17 03:16:18;;;;;;;11.77;10.00;;;;;;;16.23;100.00;100957.63;2075538;28;20565;-65
2023/05/17 03:17:18;;;;;;;16.03;10.93;;;;;;;16.20;100.00;100964.94;2063749;28;20174;-65
2023/05/17 03:18:19;;;;;;;14.70;10.60;;;;;;;16.22;100.00;100956.84;2072985;28;20182;-65
2023/05/17 03:19:19;;;;;;;13.67;10.67;;;;;;;16.24;100.00;100959.19;2072121;28;20201;-65
2023/05/17 03:20:20;;;;;;;15.60;11.00;;;;;;;16.21;100.00;100963.69;2072841;28;20194;-65
2023/05/17 03:21:20;;;;;;;18.00;11.00;;;;;;;16.24;100.00;100968.34;2073031;28;20197;-65
2023/05/17 03:22:21;;;;;;;14.63;10.50;;;;;;;16.24;100.00;100965.53;2072826;28;20381;-65
2023/05/17 03:23:21;;;;;;;11.80;10.50;;;;;;;16.27;100.00;100980.63;2072405;28;20265;-65
2023/05/17 03:24:21;;;;;;;19.30;10.67;;;;;;;16.30;100.00;100972.06;2071933;28;20666;-65
2023/05/17 03:25:22;;;;;;;14.00;10.80;;;;;;;16.32;100.00;100971.63;2067403;28;20538;-65
2023/05/17 03:26:23;;;;;;;14.00;9.80;;;;;;;15.96;100.00;100919.22;2065291;28;20577;-65
2023/05/17 03:27:23;;;;;;;14.43;10.70;;;;;;;16.23;100.00;100958.41;2064223;28;20202;-65
2023/05/17 03:28:23;;;;;;;15.87;10.00;;;;;;;15.90;100.00;100909.09;2071680;28;20200;-65
2023/05/17 03:29:24;;;;;;;12.57;9.40;;;;;;;16.25;100.00;100964.31;2072409;28;20193;-65
2023/05/17 03:30:24;;;;;;;10.80;9.47;;;;;;;16.17;100.00;100970.66;2072571;28;20189;-65
2023/05/17 03:31:25;;;;;;;15.50;10.10;;;;;;;16.16;100.00;100966.31;2072884;28;20200;-65
2023/05/17 03:32:25;;;;;;;14.73;10.50;;;;;;;16.15;100.00;100967.56;2072859;28;20546;-65
2023/05/17 03:33:26;;;;;;;15.30;10.00;;;;;;;16.16;100.00;100961.50;2071165;28;20665;-65
2023/05/17 03:34:26;;;;;;;13.83;9.90;;;;;;;16.14;100.00;100972.34;2064703;28;20559;-65
2023/05/17 03:35:26;;;;;;;17.97;10.63;;;;;;;16.11;100.00;100972.50;2069011;28;21023;-65
2023/05/17 03:36:27;;;;;;;13.90;10.33;;;;;;;16.11;100.00;100969.72;2072976;28;20683;-65
2023/05/17 03:37:27;;;;;;;12.83;9.90;;;;;;;16.15;100.00;100973.16;2072560;28;20263;-65
2023/05/17 03:38:27;;;;;;;15.80;9.77;;;;;;;16.08;100.00;100965.06;2072443;28;20197;-65
2023/05/17 03:39:28;;;;;;;11.87;9.77;;;;;;;16.09;100.00;100978.56;2072145;28;20191;-65
2023/05/17 03:40:28;;;;;;;11.40;9.43;;;;;;;16.03;100.00;100966.44;2070773;28;20229;-65
2023/05/17 03:41:30;;;;;;;11.47;9.60;;;;;;;16.02;100.00;100972.47;2072982;28;20185;-65
2023/05/17 03:42:32;;;;;;;13.23;10.03;;;;;;;15.99;100.00;100970.63;2072710;28;20215;-64
2023/05/17 03:43:33;;;;;;;17.03;10.87;;;;;;;15.97;100.00;100967.47;2073049;28;20430;-64
2023/05/17 03:44:33;;;;;;;16.23;10.73;;;;;;;15.96;100.00;100974.31;2071824;28;20199;-65
2023/05/17 03:45:34;;;;;;;12.40;9.53;;;;;;;15.90;100.00;100967.78;2072168;28;20254;-65
2023/05/17 03:46:34;;;;;;;13.30;9.93;;;;;;;15.87;100.00;100951.91;2072543;28;20284;-65
2023/05/17 03:47:35;;;;;;;12.57;9.27;;;;;;;15.78;100.00;100963.09;2070451;28;20202;-65
2023/05/17 03:48:35;;;;;;;16.50;10.60;;;;;;;15.80;100.00;100966.97;2066774;28;20203;-65
2023/05/17 03:49:35;;;;;;;16.30;10.00;;;;;;;15.78;100.00;100966.63;2071677;28;20964;-65
2023/05/17 03:50:37;;;;;;;12.77;9.63;;;;;;;15.80;100.00;100964.19;2072514;28;20245;-65
2023/05/17 03:51:38;;;;;;;16.23;9.97;;;;;;;15.75;100.00;100952.81;2073419;28;20266;-65
2023/05/17 03:52:40;;;;;;;12.63;9.70;;;;;;;15.86;100.00;100967.94;2072601;28;20459;-65
2023/05/17 03:53:42;;;;;;;13.57;9.37;;;;;;;15.85;100.00;100976.75;2072622;28;20202;-65
2023/05/17 03:54:42;;;;;;;13.97;10.20;;;;;;;15.78;100.00;100961.03;2076950;28;20455;-65
2023/05/17 03:55:43;;;;;;;15.90;9.33;;;;;;;15.57;100.00;100939.53;2075811;28;20452;-65
2023/05/17 03:56:46;;;;;;;13.13;9.23;;;;;;;15.69;100.00;100960.25;2072593;28;20681;-64
2023/05/17 03:57:46;;;;;;;13.57;9.93;;;;;;;15.52;100.00;100931.00;2071109;28;20316;-66
2023/05/17 03:58:46;;;;;;;18.17;9.90;;;;;;;15.85;100.00;100985.16;2071043;28;20412;-64
2023/05/17 03:59:47;;;;;;;13.23;9.70;;;;;;;15.88;100.00;100982.22;2068519;28;20185;-64
2023/05/17 04:00:47;;;;;;;13.40;9.67;;;;;;;15.87;100.00;100991.03;2072486;28;20236;-63
2023/05/17 04:01:47;;;;;;;14.57;10.23;;;;;;;15.86;100.00;100995.88;2070956;28;20198;-66
2023/05/17 04:02:50;;;;;;;16.10;8.93;;;;;;;15.86;100.00;101015.44;2072705;28;20191;-67
2023/05/17 04:03:50;;;;;;;14.40;9.60;;;;;;;15.91;100.00;101000.06;2068775;28;20233;-66
2023/05/17 04:04:51;;;;;;;14.90;9.63;;;;;;;15.84;100.00;100989.94;2066924;28;20444;-63
2023/05/17 04:05:52;;;;;;;18.07;9.90;;;;;;;15.89;100.00;101000.53;2077418;28;20196;-66
2023/05/17 04:06:52;;;;;;;13.50;9.50;;;;;;;15.91;100.00;101003.66;2072652;28;20424;-62
2023/05/17 04:07:53;;;;;;;15.40;10.37;;;;;;;15.45;100.00;100939.63;2072504;28;20441;-68
2023/05/17 04:08:54;;;;;;;14.33;10.07;;;;;;;15.89;100.00;101011.72;2071956;28;20192;-66
2023/05/17 04:09:58;;;;;;;15.53;9.77;;;;;;;15.35;100.00;100949.19;2075638;28;20193;-65
2023/05/17 04:11:00;;;;;;;13.80;9.70;;;;;;;15.47;100.00;100951.91;2073894;28;20284;-66
2023/05/17 04:12:00;;;;;;;14.33;9.93;;;;;;;15.73;100.00;101006.34;2072865;28;20453;-66
2023/05/17 04:13:00;;;;;;;13.43;10.30;;;;;;;15.75;100.00;101006.69;2072374;28;20504;-64
2023/05/17 04:14:01;;;;;;;13.27;10.20;;;;;;;15.82;100.00;101006.41;2072001;28;20283;-66
2023/05/17 04:15:03;;;;;;;13.47;9.63;;;;;;;15.73;100.00;100995.19;2072480;28;20223;-65
2023/05/17 04:16:03;;;;;;;12.67;9.40;;;;;;;15.84;100.00;101005.94;2072406;28;20191;-67
2023/05/17 04:17:04;;;;;;;17.50;9.70;;;;;;;15.87;100.00;101002.22;2071167;28;20429;-67
2023/05/17 04:18:04;;;;;;;12.67;9.43;;;;;;;15.87;100.00;101010.59;2072865;28;20197;-65
2023/05/17 04:19:05;;;;;;;11.10;9.27;;;;;;;15.80;100.00;101013.69;2069687;28;20623;-67
2023/05/17 04:20:06;;;;;;;18.37;10.23;;;;;;;15.82;100.00;101012.00;2070087;28;20204;-66
2023/05/17 04:21:06;;;;;;;13.63;9.83;;;;;;;15.81;100.00;101010.44;2072140;28;20206;-65
2023/05/17 04:22:07;;;;;;;15.80;9.97;;;;;;;15.82;100.00;101019.59;2077978;28;20646;-64
2023/05/17 04:23:07;;;;;;;13.73;9.90;;;;;;;15.87;100.00;101014.19;2076910;28;20190;-66
2023/05/17 04:24:08;;;;;;;15.77;9.77;;;;;;;15.56;100.00;100976.31;2072682;28;20207;-67
2023/05/17 04:25:09;;;;;;;12.83;9.57;;;;;;;15.92;100.00;101024.78;2072171;28;20271;-63
2023/05/17 04:26:09;;;;;;;13.43;9.20;;;;;;;15.80;100.00;101008.09;2072520;28;20212;-66
2023/05/17 04:27:10;;;;;;;15.03;9.27;;;;;;;15.75;100.00;101017.06;2071826;28;20236;-65
2023/05/17 04:28:11;;;;;;;16.57;9.60;;;;;;;15.90;100.00;101040.44;2077327;28;20617;-66
2023/05/17 04:29:11;;;;;;;14.80;9.97;;;;;;;15.92;100.00;101044.34;2073081;28;20200;-66
2023/05/17 04:30:12;;;;;;;14.07;9.47;;;;;;;15.93;100.00;101054.28;2071584;28;20312;-65
2023/05/17 04:31:15;;;;;;;10.70;8.93;;;;;;;15.97;100.00;101048.53;2071950;28;20201;-64
2023/05/17 04:32:16;;;;;;;10.50;9.00;;;;;;;16.01;100.00;101051.97;2071771;28;20718;-65
2023/05/17 04:33:17;;;;;;;11.03;8.40;;;;;;;16.01;100.00;101052.78;2071041;28;21033;-66
2023/05/17 04:34:17;;;;;;;12.17;8.37;;;;;;;16.02;100.00;101053.53;2079242;28;20427;-66
2023/05/17 04:35:18;;;;;;;12.17;8.73;;;;;;;16.00;100.00;101058.81;2072068;28;20278;-64
2023/05/17 04:36:18;;;;;;;13.10;8.83;;;;;;;16.00;100.00;101065.19;2071905;28;20189;-66
2023/05/17 04:37:19;;;;;;;13.10;8.70;;;;;;;16.05;100.00;101063.81;2071549;28;20243;-66
2023/05/17 04:38:20;;;;;;;11.60;8.67;;;;;;;15.64;100.00;100991.56;2067608;28;20191;-65
2023/05/17 04:39:21;;;;;;;11.07;7.93;;;;;;;16.10;100.00;101063.22;2064689;28;20240;-65
2023/05/17 04:40:21;;;;;;;13.73;8.47;;;;;;;16.06;100.00;101051.38;2066168;28;20252;-65